createdAt,value
2018-05-08T00:00:53.479Z,3.97
2018-05-08T00:03:20.782Z,3.80
2018-05-08T00:05:48.060Z,3.43
2018-05-08T00:08:15.367Z,3.60
2018-05-08T00:10:42.643Z,3.70
2018-05-08T00:13:09.939Z,3.20
2018-05-08T00:15:37.323Z,3.12
2018-05-08T00:18:04.633Z,3.70
2018-05-08T00:20:31.907Z,3.80
2018-05-08T00:22:59.202Z,3.63
2018-05-08T00:25:26.482Z,3.93
2018-05-08T00:27:53.783Z,4.30
2018-05-08T00:30:21.063Z,4.30
2018-05-08T00:32:48.494Z,3.47
2018-05-08T00:35:15.751Z,4.00
2018-05-08T00:37:43.048Z,3.40
2018-05-08T00:40:10.627Z,4.30
2018-05-08T00:42:37.927Z,4.17
2018-05-08T00:45:05.209Z,4.17
2018-05-08T00:47:32.508Z,3.60
2018-05-08T00:49:59.795Z,3.50
2018-05-08T00:52:27.094Z,4.28
2018-05-08T00:55:00.396Z,3.93
2018-05-08T00:57:27.699Z,3.60
2018-05-08T00:59:54.975Z,3.90
2018-05-08T01:02:22.295Z,4.77
2018-05-08T01:04:49.581Z,3.67
2018-05-08T01:07:16.860Z,3.63
2018-05-08T01:09:44.158Z,3.70
2018-05-08T01:12:11.435Z,4.17
2018-05-08T01:14:38.732Z,4.13
2018-05-08T01:17:06.085Z,4.30
2018-05-08T01:19:33.316Z,4.17
2018-05-08T01:22:00.605Z,4.00
2018-05-08T01:24:27.907Z,4.37
2018-05-08T01:26:55.190Z,3.80
2018-05-08T01:29:22.487Z,3.97
2018-05-08T01:31:49.775Z,4.50
2018-05-08T01:34:17.075Z,4.40
2018-05-08T01:36:44.351Z,3.67
2018-05-08T01:39:11.657Z,4.20
2018-05-08T01:41:38.939Z,3.87
2018-05-08T01:44:06.251Z,3.93
2018-05-08T01:46:33.531Z,4.63
2018-05-08T01:49:00.835Z,4.30
2018-05-08T01:51:28.115Z,4.87
2018-05-08T01:53:55.423Z,4.10
2018-05-08T01:56:22.703Z,4.30
2018-05-08T01:58:50.008Z,3.73
2018-05-08T02:01:17.282Z,4.50
2018-05-08T02:03:44.578Z,4.03
2018-05-08T02:06:11.868Z,4.70
2018-05-08T02:08:39.171Z,4.63
2018-05-08T02:11:06.457Z,5.10
2018-05-08T02:13:34.268Z,4.50
2018-05-08T02:16:01.547Z,4.50
2018-05-08T02:18:28.851Z,4.27
2018-05-08T02:20:56.131Z,4.00
2018-05-08T02:23:23.436Z,3.80
2018-05-08T02:25:50.811Z,4.13
2018-05-08T02:28:18.011Z,4.50
2018-05-08T02:30:45.315Z,4.23
2018-05-08T02:33:12.593Z,5.30
2018-05-08T02:35:39.895Z,4.20
2018-05-08T02:38:07.180Z,4.90
2018-05-08T02:40:34.487Z,5.83
2018-05-08T02:43:01.764Z,4.90
2018-05-08T02:45:29.063Z,5.23
2018-05-08T02:47:56.415Z,5.20
2018-05-08T02:50:23.723Z,3.83
2018-05-08T02:52:51.005Z,4.53
2018-05-08T02:55:18.300Z,5.30
2018-05-08T02:57:45.588Z,4.50
2018-05-08T03:00:12.883Z,4.80
2018-05-08T03:02:40.163Z,4.63
2018-05-08T03:05:07.469Z,5.17
2018-05-08T03:07:34.741Z,4.73
2018-05-08T03:10:02.048Z,4.73
2018-05-08T03:12:29.327Z,4.77
2018-05-08T03:14:56.631Z,4.93
2018-05-08T03:17:23.914Z,4.30
2018-05-08T03:19:51.211Z,5.00
2018-05-08T03:22:18.505Z,4.20
2018-05-08T03:24:45.787Z,4.70
2018-05-08T03:27:13.071Z,4.53
2018-05-08T03:29:40.372Z,4.57
2018-05-08T03:32:07.650Z,4.90
2018-05-08T03:34:34.947Z,4.53
2018-05-08T03:37:02.228Z,5.43
2018-05-08T03:39:29.528Z,4.60
2018-05-08T03:41:56.836Z,5.23
2018-05-08T03:44:24.131Z,4.27
2018-05-08T03:46:51.411Z,5.30
2018-05-08T03:49:18.715Z,5.20
2018-05-08T03:51:45.999Z,4.32
2018-05-08T03:54:13.278Z,4.63
2018-05-08T03:56:40.576Z,4.80
2018-05-08T03:59:07.851Z,4.60
2018-05-08T04:01:41.056Z,5.10
2018-05-08T04:04:14.175Z,4.87
2018-05-08T04:06:56.199Z,4.50
2018-05-08T04:09:23.501Z,4.87
2018-05-08T04:11:51.074Z,4.67
2018-05-08T04:14:18.359Z,5.50
2018-05-08T04:16:45.659Z,5.80
2018-05-08T04:19:12.936Z,4.80
2018-05-08T04:21:40.241Z,5.30
2018-05-08T04:24:07.515Z,4.83
2018-05-08T04:26:34.816Z,4.50
2018-05-08T04:29:02.097Z,5.17
2018-05-08T04:31:29.400Z,5.10
2018-05-08T04:33:56.690Z,5.80
2018-05-08T04:36:23.987Z,4.43
2018-05-08T04:38:51.277Z,4.83
2018-05-08T04:41:18.568Z,5.13
2018-05-08T04:43:45.847Z,4.60
2018-05-08T04:46:13.147Z,5.20
2018-05-08T04:48:40.447Z,4.53
2018-05-08T04:51:07.748Z,4.70
2018-05-08T04:53:35.032Z,4.77
2018-05-08T04:56:02.331Z,4.60
2018-05-08T04:58:29.613Z,4.65
2018-05-08T05:00:56.912Z,5.07
2018-05-08T05:03:24.194Z,6.90
2018-05-08T05:05:51.514Z,6.00
2018-05-08T05:08:18.800Z,4.73
2018-05-08T05:10:46.099Z,5.67
2018-05-08T05:13:13.375Z,4.40
2018-05-08T05:15:40.675Z,4.57
2018-05-08T05:18:07.955Z,4.67
2018-05-08T05:20:35.268Z,5.30
2018-05-08T05:23:02.536Z,4.73
2018-05-08T05:25:29.840Z,5.53
2018-05-08T05:27:57.164Z,4.97
2018-05-08T05:30:24.486Z,5.27
2018-05-08T05:32:51.767Z,5.00
2018-05-08T05:35:19.067Z,5.27
2018-05-08T05:37:46.352Z,5.00
2018-05-08T05:40:13.650Z,4.00
2018-05-08T05:42:41.677Z,5.00
2018-05-08T05:45:08.859Z,4.63
2018-05-08T05:47:36.159Z,4.83
2018-05-08T05:50:03.441Z,4.50
2018-05-08T05:52:30.735Z,5.10
2018-05-08T05:54:58.013Z,5.47
2018-05-08T05:57:25.528Z,5.20
2018-05-08T05:59:52.855Z,4.67
2018-05-08T06:02:20.160Z,5.20
2018-05-08T06:04:47.435Z,5.30
2018-05-08T06:07:14.742Z,4.50
2018-05-08T06:09:42.007Z,5.13
2018-05-08T06:12:09.329Z,5.10
2018-05-08T06:14:36.602Z,5.10
2018-05-08T06:17:03.879Z,5.33
2018-05-08T06:19:31.175Z,5.03
2018-05-08T06:21:58.450Z,5.20
2018-05-08T06:24:25.752Z,4.87
2018-05-08T06:26:53.023Z,5.10
2018-05-08T06:29:20.315Z,4.73
2018-05-08T06:31:47.597Z,5.30
2018-05-08T06:34:14.887Z,4.57
2018-05-08T06:36:42.162Z,4.33
2018-05-08T06:39:09.455Z,5.13
2018-05-08T06:41:36.727Z,4.73
2018-05-08T06:44:04.031Z,4.20
2018-05-08T06:46:31.306Z,5.80
2018-05-08T06:48:58.603Z,5.53
2018-05-08T06:51:25.871Z,4.30
2018-05-08T06:53:53.139Z,4.50
2018-05-08T06:56:20.439Z,4.23
2018-05-08T06:58:47.715Z,4.63
2018-05-08T07:01:15.003Z,4.90
2018-05-08T07:03:42.284Z,4.10
2018-05-08T07:06:09.583Z,5.17
2018-05-08T07:08:36.869Z,4.97
2018-05-08T07:11:04.162Z,4.73
2018-05-08T07:13:31.428Z,4.37
2018-05-08T07:15:58.930Z,4.97
2018-05-08T07:18:26.002Z,4.17
2018-05-08T07:20:53.295Z,4.67
2018-05-08T07:23:20.572Z,4.53
2018-05-08T07:25:47.864Z,4.17
2018-05-08T07:28:15.144Z,5.03
2018-05-08T07:30:42.443Z,5.20
2018-05-08T07:33:09.719Z,4.93
2018-05-08T07:35:37.007Z,5.00
2018-05-08T07:38:04.283Z,5.70
2018-05-08T07:40:31.583Z,5.33
2018-05-08T07:42:58.854Z,6.40
2018-05-08T07:45:26.167Z,6.30
2018-05-08T07:47:53.452Z,6.13
2018-05-08T07:50:20.761Z,5.37
2018-05-08T07:52:48.035Z,5.87
2018-05-08T07:55:15.337Z,5.87
2018-05-08T07:57:42.629Z,5.33
2018-05-08T08:00:09.935Z,5.27
2018-05-08T08:02:37.214Z,4.50
2018-05-08T08:05:04.516Z,6.03
2018-05-08T08:07:31.819Z,5.33
2018-05-08T08:09:59.088Z,4.60
2018-05-08T08:12:26.411Z,5.13
2018-05-08T08:14:53.655Z,5.40
2018-05-08T08:17:20.927Z,4.43
2018-05-08T08:19:48.334Z,5.50
2018-05-08T08:22:15.587Z,4.30
2018-05-08T08:24:42.871Z,6.07
2018-05-08T08:27:10.165Z,4.87
2018-05-08T08:29:37.530Z,4.00
2018-05-08T08:32:04.739Z,4.90
2018-05-08T08:34:32.010Z,4.70
2018-05-08T08:36:59.307Z,4.30
2018-05-08T08:39:26.583Z,5.20
2018-05-08T08:41:53.876Z,5.10
2018-05-08T08:44:21.156Z,4.70
2018-05-08T08:46:48.459Z,4.57
2018-05-08T08:49:15.735Z,3.63
2018-05-08T08:51:43.100Z,4.50
2018-05-08T08:54:10.299Z,3.90
2018-05-08T08:56:37.600Z,5.13
2018-05-08T08:59:04.875Z,4.57
2018-05-08T09:01:32.172Z,5.27
2018-05-08T09:03:59.538Z,3.30
2018-05-08T09:06:26.751Z,3.93
2018-05-08T09:08:54.036Z,4.67
2018-05-08T09:11:21.405Z,4.40
2018-05-08T09:13:48.604Z,2.80
2018-05-08T09:16:15.903Z,2.93
2018-05-08T09:18:43.176Z,2.60
2018-05-08T09:21:10.474Z,2.93
2018-05-08T09:23:37.739Z,3.10
2018-05-08T09:26:05.031Z,2.93
2018-05-08T09:28:32.314Z,2.37
2018-05-08T09:30:59.606Z,2.37
2018-05-08T09:33:26.885Z,1.83
2018-05-08T09:35:54.180Z,2.33
2018-05-08T09:38:21.447Z,2.47
2018-05-08T09:40:48.744Z,2.20
2018-05-08T09:43:16.015Z,2.30
2018-05-08T09:45:43.310Z,1.93
2018-05-08T09:48:10.583Z,2.37
2018-05-08T09:50:37.855Z,1.80
2018-05-08T09:53:05.147Z,2.43
2018-05-08T09:55:32.421Z,2.70
2018-05-08T09:57:59.715Z,2.00
2018-05-08T10:00:26.983Z,2.10
2018-05-08T10:02:54.333Z,1.93
2018-05-08T10:05:21.679Z,2.47
2018-05-08T10:07:49.219Z,1.90
2018-05-08T10:10:16.827Z,1.83
2018-05-08T10:12:44.128Z,1.73
2018-05-08T10:15:11.405Z,2.33
2018-05-08T10:17:38.712Z,1.90
2018-05-08T10:20:05.988Z,1.97
2018-05-08T10:22:33.284Z,1.80
2018-05-08T10:25:00.565Z,2.07
2018-05-08T10:27:27.864Z,2.33
2018-05-08T10:29:55.140Z,2.70
2018-05-08T10:32:22.435Z,2.60
2018-05-08T10:34:49.707Z,2.30
2018-05-08T10:37:17.009Z,2.43
2018-05-08T10:39:44.283Z,2.20
2018-05-08T10:42:11.574Z,1.80
2018-05-08T10:44:38.929Z,2.43
2018-05-08T10:47:06.247Z,2.17
2018-05-08T10:49:33.615Z,2.40
2018-05-08T10:52:00.915Z,2.30
2018-05-08T10:54:28.196Z,1.90
2018-05-08T10:56:55.491Z,1.90
2018-05-08T10:59:22.768Z,2.50
2018-05-08T11:01:50.164Z,2.10
2018-05-08T11:04:17.339Z,2.80
2018-05-08T11:06:44.639Z,2.53
2018-05-08T11:09:11.907Z,2.40
2018-05-08T11:11:39.207Z,2.90
2018-05-08T11:14:06.486Z,3.93
2018-05-08T11:16:33.788Z,2.93
2018-05-08T11:19:01.067Z,2.60
2018-05-08T11:21:28.339Z,2.80
2018-05-08T11:23:55.660Z,2.30
2018-05-08T11:26:23.650Z,2.97
2018-05-08T11:28:50.952Z,2.90
2018-05-08T11:31:18.235Z,2.80
2018-05-08T11:33:45.535Z,3.10
2018-05-08T11:36:12.819Z,2.37
2018-05-08T11:38:40.120Z,2.70
2018-05-08T11:41:07.398Z,2.30
2018-05-08T11:43:34.696Z,2.57
2018-05-08T11:46:01.972Z,2.90
2018-05-08T11:48:29.275Z,2.30
2018-05-08T11:50:56.555Z,2.30
2018-05-08T11:53:23.865Z,2.80
2018-05-08T11:55:51.147Z,2.13
2018-05-08T11:58:18.459Z,2.13
2018-05-08T12:00:45.747Z,2.37
2018-05-08T12:03:13.047Z,1.87
2018-05-08T12:05:40.335Z,2.80
2018-05-08T12:08:07.664Z,2.30
2018-05-08T12:10:34.963Z,1.93
2018-05-08T12:13:02.291Z,2.20
2018-05-08T12:15:29.611Z,2.10
2018-05-08T12:17:56.927Z,2.43
2018-05-08T12:20:24.219Z,1.90
2018-05-08T12:22:51.551Z,1.90
2018-05-08T12:25:18.840Z,2.23
2018-05-08T12:27:46.135Z,2.27
2018-05-08T12:30:13.418Z,2.73
2018-05-08T12:32:40.711Z,2.53
2018-05-08T12:35:07.986Z,2.30
2018-05-08T12:37:35.283Z,2.17
2018-05-08T12:40:02.665Z,2.20
2018-05-08T12:42:29.956Z,2.37
2018-05-08T12:44:57.240Z,2.07
2018-05-08T12:47:24.561Z,2.23
2018-05-08T12:49:51.831Z,2.13
2018-05-08T12:52:19.128Z,1.73
2018-05-08T12:54:46.428Z,2.20
2018-05-08T12:57:13.706Z,2.30
2018-05-08T12:59:40.999Z,2.23
2018-05-08T13:02:08.275Z,2.30
2018-05-08T13:04:35.571Z,2.00
2018-05-08T13:07:02.847Z,2.50
2018-05-08T13:09:30.151Z,2.60
2018-05-08T13:11:57.432Z,1.93
2018-05-08T13:14:24.731Z,2.00
2018-05-08T13:16:52.007Z,2.30
2018-05-08T13:19:19.435Z,2.23
2018-05-08T13:21:46.711Z,2.00
2018-05-08T13:24:14.013Z,2.37
2018-05-08T13:26:41.295Z,2.00
2018-05-08T13:29:08.596Z,2.53
2018-05-08T13:31:35.886Z,1.97
2018-05-08T13:34:03.182Z,2.67
2018-05-08T13:36:30.454Z,2.67
2018-05-08T13:38:57.744Z,1.93
2018-05-08T13:41:25.026Z,2.37
2018-05-08T13:43:52.328Z,2.80
2018-05-08T13:46:19.607Z,2.00
2018-05-08T13:48:47.388Z,2.07
2018-05-08T13:51:14.663Z,2.90
2018-05-08T13:53:41.967Z,3.03
2018-05-08T13:56:09.256Z,2.30
2018-05-08T13:58:36.551Z,1.97
2018-05-08T14:01:04.008Z,2.03
2018-05-08T14:03:31.316Z,2.70
2018-05-08T14:05:58.605Z,2.10
2018-05-08T14:08:25.908Z,1.83
2018-05-08T14:10:53.193Z,3.20
2018-05-08T14:13:20.487Z,2.20
2018-05-08T14:15:47.759Z,2.27
2018-05-08T14:18:15.063Z,2.03
2018-05-08T14:20:42.351Z,2.30
2018-05-08T14:23:09.655Z,2.70
2018-05-08T14:25:36.968Z,1.97
2018-05-08T14:28:04.248Z,1.80
2018-05-08T14:30:31.555Z,2.13
2018-05-08T14:32:58.834Z,2.10
2018-05-08T14:35:26.312Z,2.00
2018-05-08T14:37:53.595Z,2.63
2018-05-08T14:40:20.897Z,1.93
2018-05-08T14:42:48.172Z,2.10
2018-05-08T14:45:15.476Z,2.33
2018-05-08T14:47:42.756Z,2.03
2018-05-08T14:50:10.333Z,2.20
2018-05-08T14:52:37.691Z,1.80
2018-05-08T14:55:04.991Z,2.40
2018-05-08T14:57:32.267Z,1.90
2018-05-08T14:59:59.588Z,2.57
2018-05-08T15:02:26.867Z,2.67
2018-05-08T15:04:54.162Z,2.13
2018-05-08T15:07:21.435Z,1.83
2018-05-08T15:09:48.757Z,2.73
2018-05-08T15:12:16.030Z,1.80
2018-05-08T15:14:43.331Z,1.83
2018-05-08T15:17:10.616Z,2.23
2018-05-08T15:19:37.955Z,2.20
2018-05-08T15:22:05.249Z,2.00
2018-05-08T15:24:32.543Z,2.10
2018-05-08T15:26:59.820Z,1.80
2018-05-08T15:29:27.120Z,1.70
2018-05-08T15:31:54.399Z,2.10
2018-05-08T15:34:21.695Z,1.83
2018-05-08T15:36:48.971Z,1.47
2018-05-08T15:39:16.267Z,1.93
2018-05-08T15:41:43.543Z,1.67
2018-05-08T15:44:10.844Z,1.67
2018-05-08T15:46:38.125Z,1.80
2018-05-08T15:49:05.419Z,1.80
2018-05-08T15:51:32.720Z,1.67
2018-05-08T15:54:00.074Z,2.13
2018-05-08T15:56:27.397Z,1.90
2018-05-08T15:58:54.727Z,2.57
2018-05-08T16:01:22.027Z,1.93
2018-05-08T16:03:49.412Z,1.60
2018-05-08T16:06:16.729Z,2.40
2018-05-08T16:08:44.095Z,2.13
2018-05-08T16:11:11.304Z,2.50
2018-05-08T16:13:38.775Z,1.60
2018-05-08T16:16:06.135Z,1.67
2018-05-08T16:18:33.493Z,2.40
2018-05-08T16:21:00.925Z,2.10
2018-05-08T16:23:28.130Z,3.40
2018-05-08T16:25:55.438Z,2.70
2018-05-08T16:28:22.715Z,2.17
2018-05-08T16:30:50.032Z,1.70
2018-05-08T16:33:17.348Z,2.07
2018-05-08T16:35:44.653Z,1.60
2018-05-08T16:38:12.117Z,1.73
2018-05-08T16:40:39.303Z,2.10
2018-05-08T16:43:06.628Z,1.83
2018-05-08T16:45:33.919Z,2.43
2018-05-08T16:48:01.199Z,1.97
2018-05-08T16:50:28.500Z,1.90
2018-05-08T16:52:55.775Z,1.67
2018-05-08T16:55:23.074Z,1.57
2018-05-08T16:57:50.348Z,1.80
2018-05-08T17:00:17.651Z,2.10
2018-05-08T17:02:44.954Z,2.60
2018-05-08T17:05:12.239Z,2.20
2018-05-08T17:07:39.520Z,2.57
2018-05-08T17:10:06.816Z,1.80
2018-05-08T17:12:34.095Z,2.10
2018-05-08T17:15:01.399Z,2.33
2018-05-08T17:17:28.675Z,2.50
2018-05-08T17:19:55.956Z,3.20
2018-05-08T17:22:23.991Z,2.20
2018-05-08T17:24:51.272Z,2.40
2018-05-08T17:27:18.571Z,2.57
2018-05-08T17:29:45.847Z,2.43
2018-05-08T17:32:13.143Z,2.20
2018-05-08T17:34:40.419Z,2.00
2018-05-08T17:37:08.215Z,2.20
2018-05-08T17:39:35.492Z,2.37
2018-05-08T17:42:02.787Z,1.90
2018-05-08T17:44:30.170Z,2.27
2018-05-08T17:46:57.447Z,2.60
2018-05-08T17:49:24.723Z,2.43
2018-05-08T17:51:52.023Z,2.47
2018-05-08T17:54:19.300Z,2.30
2018-05-08T17:56:46.604Z,2.07
2018-05-08T17:59:13.890Z,5.03
2018-05-08T18:01:41.189Z,2.43
2018-05-08T18:04:08.530Z,2.80
2018-05-08T18:06:35.775Z,2.27
2018-05-08T18:11:45.819Z,2.80
2018-05-08T18:14:13.094Z,3.33
2018-05-08T18:16:40.403Z,3.27
2018-05-08T18:19:07.679Z,3.20
2018-05-08T18:21:34.979Z,3.40
2018-05-08T18:24:02.258Z,3.23
2018-05-08T18:26:29.561Z,2.90
2018-05-08T18:28:56.839Z,2.63
2018-05-08T18:31:24.134Z,2.80
2018-05-08T18:33:51.415Z,3.33
2018-05-08T18:36:18.719Z,2.20
2018-05-08T18:38:45.999Z,2.70
2018-05-08T18:41:13.298Z,2.30
2018-05-08T18:43:40.580Z,2.77
2018-05-08T18:46:07.893Z,2.63
2018-05-08T18:48:35.172Z,2.77
2018-05-08T18:51:02.578Z,2.80
2018-05-08T18:53:29.859Z,2.60
2018-05-08T18:55:57.183Z,2.70
2018-05-08T18:58:25.027Z,3.03
2018-05-08T19:00:55.112Z,2.50
2018-05-08T19:03:22.485Z,2.53
2018-05-08T19:05:49.736Z,2.73
2018-05-08T19:08:17.040Z,2.67
2018-05-08T19:10:44.324Z,3.13
2018-05-08T19:13:11.623Z,2.97
2018-05-08T19:15:44.771Z,2.60
2018-05-08T19:18:12.063Z,3.33
2018-05-08T19:20:39.343Z,2.47
2018-05-08T19:23:06.647Z,3.47
2018-05-08T19:25:33.935Z,3.17
2018-05-08T19:28:07.040Z,3.80
2018-05-08T19:30:34.313Z,2.73
2018-05-08T19:33:01.606Z,2.80
2018-05-08T19:35:34.751Z,2.90
2018-05-08T19:38:03.911Z,3.10
2018-05-08T19:40:31.183Z,3.20
2018-05-08T19:42:58.496Z,2.87
2018-05-08T19:45:25.781Z,2.90
2018-05-08T19:47:53.074Z,3.47
2018-05-08T19:50:20.365Z,2.60
2018-05-08T19:52:47.659Z,3.27
2018-05-08T19:55:14.944Z,3.30
2018-05-08T19:57:42.332Z,3.60
2018-05-08T20:00:09.615Z,3.10
2018-05-08T20:02:36.922Z,2.60
2018-05-08T20:05:04.200Z,2.77
2018-05-08T20:07:31.504Z,3.13
2018-05-08T20:09:58.787Z,4.00
2018-05-08T20:12:26.092Z,3.70
2018-05-08T20:14:53.380Z,3.60
2018-05-08T20:17:20.679Z,2.60
2018-05-08T20:19:47.956Z,3.17
2018-05-08T20:22:15.258Z,3.27
2018-05-08T20:24:42.543Z,3.10
2018-05-08T20:27:09.883Z,3.20
2018-05-08T20:29:37.300Z,3.00
2018-05-08T20:32:05.161Z,3.10
2018-05-08T20:34:32.532Z,3.30
2018-05-08T20:37:00.147Z,2.90
2018-05-08T20:39:27.883Z,2.63
2018-05-08T20:41:56.563Z,2.50
2018-05-08T20:44:24.034Z,2.87
2018-05-08T20:46:51.469Z,3.13
2018-05-08T20:49:18.812Z,3.10
2018-05-08T20:51:46.091Z,2.97
2018-05-08T20:54:13.394Z,2.63
2018-05-08T20:56:40.888Z,2.90
2018-05-08T20:59:09.739Z,2.67
2018-05-08T21:01:37.508Z,3.30
2018-05-08T21:04:04.840Z,2.80
2018-05-08T21:06:32.111Z,3.10
2018-05-08T21:08:59.408Z,2.60
2018-05-08T21:11:27.055Z,2.97
2018-05-08T21:13:54.356Z,3.37
2018-05-08T21:16:21.691Z,3.03
2018-05-08T21:18:48.987Z,2.80
2018-05-08T21:21:16.267Z,3.17
2018-05-08T21:23:43.568Z,2.80
2018-05-08T21:26:10.835Z,2.73
2018-05-08T21:28:43.852Z,3.00
2018-05-08T21:31:13.986Z,2.53
2018-05-08T21:33:41.275Z,2.50
2018-05-08T21:36:08.552Z,2.40
2018-05-08T21:38:35.840Z,4.23
2018-05-08T21:41:03.115Z,3.40
2018-05-08T21:43:30.411Z,3.57
2018-05-08T21:45:57.682Z,3.60
2018-05-08T21:48:24.988Z,3.80
2018-05-08T21:50:52.256Z,4.20
2018-05-08T21:53:19.552Z,4.87
2018-05-08T21:55:46.827Z,4.30
2018-05-08T21:58:14.123Z,4.43
2018-05-08T22:00:41.399Z,5.10
2018-05-08T22:03:08.699Z,5.10
2018-05-08T22:05:35.970Z,4.77
2018-05-08T22:08:03.268Z,4.10
2018-05-08T22:10:30.543Z,5.13
2018-05-08T22:12:57.839Z,4.40
2018-05-08T22:15:25.137Z,4.43
2018-05-08T22:17:52.435Z,4.57
2018-05-08T22:20:19.761Z,4.90
2018-05-08T22:22:46.999Z,4.20
2018-05-08T22:25:14.301Z,4.07
2018-05-08T22:27:41.570Z,4.60
2018-05-08T22:30:08.871Z,5.13
2018-05-08T22:32:36.152Z,4.90
2018-05-08T22:35:03.458Z,4.73
2018-05-08T22:37:30.729Z,4.33
2018-05-08T22:39:58.024Z,3.87
2018-05-08T22:42:25.296Z,4.10
2018-05-08T22:44:52.595Z,4.93
2018-05-08T22:47:19.868Z,4.50
2018-05-08T22:49:47.164Z,4.43
2018-05-08T22:52:14.450Z,4.20
2018-05-08T22:54:41.735Z,4.17
2018-05-08T22:57:09.019Z,4.67
2018-05-08T22:59:36.332Z,4.23
2018-05-08T23:02:03.615Z,4.10
2018-05-08T23:04:30.914Z,4.50
2018-05-08T23:06:58.199Z,4.53
2018-05-08T23:09:25.531Z,4.67
2018-05-08T23:11:52.776Z,4.73
2018-05-08T23:14:20.071Z,4.90
2018-05-08T23:16:47.352Z,3.93
2018-05-08T23:19:14.748Z,4.70
2018-05-08T23:21:42.011Z,5.07
2018-05-08T23:24:09.311Z,4.90
2018-05-08T23:26:36.592Z,5.00
2018-05-08T23:29:03.887Z,4.80
2018-05-08T23:31:31.163Z,4.40
2018-05-08T23:33:58.459Z,4.90
2018-05-08T23:36:25.739Z,5.70
2018-05-08T23:38:53.036Z,4.93
2018-05-08T23:41:20.323Z,5.13
2018-05-08T23:43:47.627Z,4.73
2018-05-08T23:46:14.902Z,5.43
2018-05-08T23:48:42.167Z,4.33
2018-05-08T23:51:09.476Z,5.63
2018-05-08T23:53:36.759Z,5.40
2018-05-08T23:56:04.068Z,5.90
2018-05-08T23:58:31.355Z,4.90
